Time;durP1;ratioP1;P1;durP2;ratioP2;P2;SDS_P1;SDS_P2;PMS_P1;PMS_P2;Temp;Humidity;BMP_temperature;BMP_pressure;BME280_temperature;BME280_humidity;BME280_pressure;Samples;Min_cycle;Max_cycle;Signal;HPM_P1;HPM_P2
2023/04/19 00:00:39;;;;;;;7.55;2.70;;;;;;;;;;5015094;28;20532;-79
2023/04/19 00:03:05;;;;;;;5.32;2.75;;;;;;;;;;4990992;28;20037;-78
2023/04/19 00:05:31;;;;;;;4.85;2.15;;;;;;;;;;5016011;28;20042;-78
2023/04/19 00:07:57;;;;;;;5.70;2.10;;;;;;;;;;4999877;28;20057;-79
2023/04/19 00:10:22;;;;;;;7.47;2.45;;;;;;;;;;4990295;28;20061;-78
2023/04/19 00:12:48;;;;;;;7.28;2.72;;;;;;;;;;5000284;28;20044;-78
2023/04/19 00:15:13;;;;;;;7.88;2.50;;;;;;;;;;4999193;28;20034;-78
2023/04/19 00:17:39;;;;;;;5.72;2.42;;;;;;;;;;4998567;28;20082;-77
2023/04/19 00:20:06;;;;;;;4.57;1.85;;;;;;;;;;5003008;28;20040;-77
2023/04/19 00:22:31;;;;;;;4.80;2.13;;;;;;;;;;5000733;28;20050;-78
2023/04/19 00:24:56;;;;;;;5.75;2.10;;;;;;;;;;5001424;28;20042;-79
2023/04/19 00:27:22;;;;;;;5.55;2.13;;;;;;;;;;5001382;28;20037;-78
2023/04/19 00:29:47;;;;;;;5.55;2.20;;;;;;;;;;5017377;28;20069;-78
2023/04/19 00:32:13;;;;;;;5.30;2.25;;;;;;;;;;5018357;28;20449;-79
2023/04/19 00:34:39;;;;;;;4.68;1.77;;;;;;;;;;5002922;28;20041;-78
2023/04/19 00:37:04;;;;;;;4.72;1.70;;;;;;;;;;4984682;28;20036;-79
2023/04/19 00:39:30;;;;;;;4.55;1.80;;;;;;;;;;4998458;28;20418;-79
2023/04/19 00:41:58;;;;;;;3.90;1.70;;;;;;;;;;5014942;28;20038;-79
2023/04/19 00:44:24;;;;;;;5.63;1.70;;;;;;;;;;4996454;28;20050;-79
2023/04/19 00:46:50;;;;;;;3.90;1.85;;;;;;;;;;4988856;28;20038;-79
2023/04/19 00:49:16;;;;;;;4.82;1.88;;;;;;;;;;4979058;28;20446;-78
2023/04/19 00:51:42;;;;;;;5.25;1.80;;;;;;;;;;4998289;28;20121;-78
2023/04/19 00:54:08;;;;;;;3.83;1.55;;;;;;;;;;5004849;28;20060;-78
2023/04/19 00:56:34;;;;;;;4.20;1.70;;;;;;;;;;5013203;28;20048;-79
2023/04/19 00:58:59;;;;;;;5.10;2.10;;;;;;;;;;5013178;28;20029;-78
2023/04/19 01:01:25;;;;;;;5.00;1.50;;;;;;;;;;4995036;28;20044;-79
2023/04/19 01:03:50;;;;;;;4.57;1.63;;;;;;;;;;4995719;28;20038;-79
2023/04/19 01:06:15;;;;;;;4.05;1.88;;;;;;;;;;4996303;28;20041;-79
2023/04/19 01:08:41;;;;;;;5.40;1.80;;;;;;;;;;5013683;28;20104;-78
2023/04/19 01:11:09;;;;;;;3.80;1.88;;;;;;;;;;5000199;28;20393;-79
2023/04/19 01:13:35;;;;;;;3.10;1.42;;;;;;;;;;4994263;28;20042;-79
2023/04/19 01:16:00;;;;;;;6.18;1.60;;;;;;;;;;4982475;28;20506;-78
2023/04/19 01:18:31;;;;;;;3.25;1.58;;;;;;;;;;4995372;28;20041;-80
2023/04/19 01:20:57;;;;;;;3.75;1.70;;;;;;;;;;4998654;28;20303;-79
2023/04/19 01:23:22;;;;;;;4.40;1.73;;;;;;;;;;5011274;28;20045;-79
2023/04/19 01:25:49;;;;;;;4.63;1.90;;;;;;;;;;4988011;28;20033;-79
2023/04/19 01:28:14;;;;;;;3.60;1.50;;;;;;;;;;5013504;28;20041;-79
2023/04/19 01:30:40;;;;;;;5.45;1.83;;;;;;;;;;4988405;28;20033;-79
2023/04/19 01:33:05;;;;;;;2.95;1.38;;;;;;;;;;4985300;28;20061;-78
2023/04/19 01:35:30;;;;;;;5.32;2.00;;;;;;;;;;5011101;28;20042;-78
2023/04/19 01:37:56;;;;;;;3.50;1.70;;;;;;;;;;4993661;28;20112;-79
2023/04/19 01:40:23;;;;;;;4.15;1.85;;;;;;;;;;4982021;28;20038;-79
2023/04/19 01:42:49;;;;;;;;;;;;;;;;;;5001543;28;20034;-78
2023/04/19 01:45:14;;;;;;;4.30;1.80;;;;;;;;;;4985605;28;20364;-78
2023/04/19 01:47:40;;;;;;;3.22;1.52;;;;;;;;;;5010674;28;22032;-78
2023/04/19 01:50:06;;;;;;;3.88;1.85;;;;;;;;;;4998873;28;20684;-81
2023/04/19 01:52:31;;;;;;;4.20;1.30;;;;;;;;;;4992506;28;20046;-79
2023/04/19 01:54:57;;;;;;;4.00;1.80;;;;;;;;;;5003493;28;20041;-79
2023/04/19 01:57:22;;;;;;;3.65;1.65;;;;;;;;;;4994695;28;20096;-78
2023/04/19 01:59:49;;;;;;;3.53;1.50;;;;;;;;;;4980831;28;20041;-79
2023/04/19 02:02:14;;;;;;;4.85;1.70;;;;;;;;;;4998095;28;20129;-78
2023/04/19 02:04:39;;;;;;;7.35;1.95;;;;;;;;;;4994296;28;20635;-78
2023/04/19 02:07:05;;;;;;;3.85;1.67;;;;;;;;;;4978587;28;20842;-78
2023/04/19 02:09:34;;;;;;;3.60;1.80;;;;;;;;;;4993209;28;20537;-78
2023/04/19 02:12:00;;;;;;;3.60;1.60;;;;;;;;;;4979173;28;20084;-79
2023/04/19 02:14:25;;;;;;;5.20;1.90;;;;;;;;;;4994712;28;20490;-77
2023/04/19 02:16:51;;;;;;;4.35;1.80;;;;;;;;;;4983189;28;20037;-81
2023/04/19 02:19:16;;;;;;;5.43;2.00;;;;;;;;;;5012893;28;20381;-79
2023/04/19 02:21:42;;;;;;;6.05;1.70;;;;;;;;;;4994814;28;20034;-80
2023/04/19 02:24:07;;;;;;;3.78;1.88;;;;;;;;;;4991322;28;20960;-79
2023/04/19 02:26:32;;;;;;;5.20;1.92;;;;;;;;;;4991614;28;20041;-79
2023/04/19 02:28:58;;;;;;;3.95;1.70;;;;;;;;;;4984031;28;20030;-79
2023/04/19 02:31:24;;;;;;;4.10;1.73;;;;;;;;;;4991594;28;20046;-79
2023/04/19 02:33:49;;;;;;;3.88;1.73;;;;;;;;;;4984597;28;20696;-78
2023/04/19 02:36:14;;;;;;;3.22;1.48;;;;;;;;;;4989459;28;20050;-78
2023/04/19 02:38:40;;;;;;;3.88;1.40;;;;;;;;;;4992075;28;20041;-78
2023/04/19 02:41:05;;;;;;;3.22;1.48;;;;;;;;;;4991306;28;20061;-78
2023/04/19 02:43:31;;;;;;;3.63;1.50;;;;;;;;;;4973760;28;20038;-78
2023/04/19 02:45:57;;;;;;;4.18;1.63;;;;;;;;;;4989762;28;20179;-79
2023/04/19 02:48:22;;;;;;;4.65;1.92;;;;;;;;;;4989755;28;20043;-78
2023/04/19 02:50:48;;;;;;;7.68;1.83;;;;;;;;;;4998703;28;20030;-78
2023/04/19 02:53:13;;;;;;;4.53;1.40;;;;;;;;;;4991705;28;20119;-78
2023/04/19 02:55:38;;;;;;;5.20;1.85;;;;;;;;;;4994237;28;20041;-77
2023/04/19 02:58:04;;;;;;;3.47;1.60;;;;;;;;;;4992696;28;20038;-77
2023/04/19 03:00:29;;;;;;;3.03;1.25;;;;;;;;;;4993724;28;20065;-78
2023/04/19 03:02:55;;;;;;;6.15;1.50;;;;;;;;;;4992310;28;20403;-78
2023/04/19 03:05:22;;;;;;;5.25;2.03;;;;;;;;;;4991163;28;20057;-78
2023/04/19 03:07:47;;;;;;;5.25;1.73;;;;;;;;;;4992002;28;20045;-78
2023/04/19 03:10:13;;;;;;;4.30;1.48;;;;;;;;;;4980943;28;20042;-79
2023/04/19 03:12:38;;;;;;;4.90;1.70;;;;;;;;;;4983191;28;20034;-79
2023/04/19 03:15:04;;;;;;;4.13;1.65;;;;;;;;;;4990649;28;20034;-78
2023/04/19 03:17:29;;;;;;;7.88;1.90;;;;;;;;;;4989995;28;20034;-78
2023/04/19 03:19:55;;;;;;;3.78;1.60;;;;;;;;;;4999995;28;20037;-78
2023/04/19 03:22:20;;;;;;;4.25;1.50;;;;;;;;;;4990863;28;20042;-78
2023/04/19 03:24:46;;;;;;;4.75;1.55;;;;;;;;;;4994067;28;20953;-78
2023/04/19 03:27:11;;;;;;;3.63;1.38;;;;;;;;;;4990979;28;20074;-77
2023/04/19 03:29:37;;;;;;;4.35;1.70;;;;;;;;;;4987774;28;20046;-78
2023/04/19 03:32:02;;;;;;;6.45;1.70;;;;;;;;;;4991343;28;20057;-78
2023/04/19 03:34:27;;;;;;;5.10;1.63;;;;;;;;;;4983222;28;20092;-79
2023/04/19 03:36:53;;;;;;;3.53;1.42;;;;;;;;;;4991696;28;20041;-79
2023/04/19 03:39:18;;;;;;;3.50;1.60;;;;;;;;;;4998859;28;20374;-79
2023/04/19 03:41:44;;;;;;;7.57;1.80;;;;;;;;;;4991450;28;20042;-78
2023/04/19 03:44:09;;;;;;;4.47;1.40;;;;;;;;;;4990575;28;20394;-79
2023/04/19 03:46:35;;;;;;;4.93;1.67;;;;;;;;;;4987335;28;20077;-78
2023/04/19 03:49:00;;;;;;;3.75;1.63;;;;;;;;;;4992746;28;20038;-79
2023/04/19 03:51:26;;;;;;;4.05;1.65;;;;;;;;;;4989468;28;20078;-78
2023/04/19 03:53:51;;;;;;;3.50;1.48;;;;;;;;;;4988871;28;20085;-80
2023/04/19 03:56:16;;;;;;;3.72;1.60;;;;;;;;;;4990826;28;20084;-79
2023/04/19 03:58:42;;;;;;;3.42;1.27;;;;;;;;;;4990533;28;20034;-79
2023/04/19 04:01:07;;;;;;;4.70;1.80;;;;;;;;;;4988786;28;20120;-78
2023/04/19 04:03:33;;;;;;;4.38;1.60;;;;;;;;;;4990309;28;20034;-78
2023/04/19 04:05:59;;;;;;;3.17;1.42;;;;;;;;;;4990930;28;20030;-79
2023/04/19 04:08:24;;;;;;;3.78;1.38;;;;;;;;;;4989645;28;20050;-78
2023/04/19 04:10:50;;;;;;;3.65;1.48;;;;;;;;;;4993116;28;20037;-78
2023/04/19 04:13:15;;;;;;;5.00;1.52;;;;;;;;;;4992142;28;20387;-78
2023/04/19 04:15:40;;;;;;;4.32;1.58;;;;;;;;;;4994047;28;20066;-78
2023/04/19 04:18:06;;;;;;;3.67;1.60;;;;;;;;;;4996595;28;20034;-78
2023/04/19 04:20:31;;;;;;;3.38;1.70;;;;;;;;;;4993003;28;20057;-78
2023/04/19 04:22:57;;;;;;;3.22;1.50;;;;;;;;;;4980984;28;20057;-79
2023/04/19 04:25:23;;;;;;;2.63;1.30;;;;;;;;;;4996037;28;20056;-78
2023/04/19 04:27:50;;;;;;;4.20;1.45;;;;;;;;;;5002633;28;20053;-78
2023/04/19 04:30:16;;;;;;;3.72;1.52;;;;;;;;;;4992360;28;20498;-78
2023/04/19 04:32:42;;;;;;;3.50;1.50;;;;;;;;;;4993327;28;20037;-78
2023/04/19 04:35:08;;;;;;;4.15;1.45;;;;;;;;;;4992498;28;20517;-80
2023/04/19 04:37:34;;;;;;;4.28;1.52;;;;;;;;;;5001943;28;20030;-80
2023/04/19 04:40:00;;;;;;;4.68;1.55;;;;;;;;;;4990902;28;20441;-80
2023/04/19 04:42:26;;;;;;;3.83;1.30;;;;;;;;;;4991721;28;20038;-80
2023/04/19 04:44:52;;;;;;;7.25;1.90;;;;;;;;;;4976385;28;20445;-80
2023/04/19 04:47:17;;;;;;;6.00;1.60;;;;;;;;;;4992221;28;20037;-80
2023/04/19 04:49:43;;;;;;;3.97;1.45;;;;;;;;;;4991670;28;20433;-80
2023/04/19 04:52:08;;;;;;;5.13;1.80;;;;;;;;;;4982541;28;20569;-80
2023/04/19 04:54:34;;;;;;;4.10;1.50;;;;;;;;;;4991874;28;20038;-80
2023/04/19 04:57:00;;;;;;;3.92;1.50;;;;;;;;;;4984995;28;20067;-80
2023/04/19 04:59:25;;;;;;;4.40;1.48;;;;;;;;;;4991738;28;20118;-80
2023/04/19 05:01:51;;;;;;;4.30;1.60;;;;;;;;;;4993066;28;20473;-81
2023/04/19 05:04:17;;;;;;;5.85;2.08;;;;;;;;;;4995585;28;20397;-79
2023/04/19 05:06:43;;;;;;;4.88;1.60;;;;;;;;;;4976079;28;20516;-80
2023/04/19 05:09:09;;;;;;;4.10;1.33;;;;;;;;;;4993945;28;20038;-80
2023/04/19 05:11:34;;;;;;;4.45;1.60;;;;;;;;;;4992197;28;20069;-80
2023/04/19 05:14:00;;;;;;;3.00;1.27;;;;;;;;;;4992539;28;20041;-80
2023/04/19 05:16:26;;;;;;;4.28;1.45;;;;;;;;;;5008018;28;20202;-79
2023/04/19 05:18:51;;;;;;;4.30;1.85;;;;;;;;;;4994810;28;20030;-81
2023/04/19 05:21:16;;;;;;;3.55;1.67;;;;;;;;;;5002120;28;20057;-79
2023/04/19 05:23:42;;;;;;;7.72;1.58;;;;;;;;;;4991391;28;20100;-79
2023/04/19 05:26:11;;;;;;;4.32;1.52;;;;;;;;;;4991445;28;20036;-80
2023/04/19 05:28:36;;;;;;;3.35;1.30;;;;;;;;;;4992660;28;20093;-80
2023/04/19 05:31:02;;;;;;;6.57;1.40;;;;;;;;;;4998696;28;20441;-80
2023/04/19 05:33:27;;;;;;;3.80;1.35;;;;;;;;;;4993117;28;20075;-80
2023/04/19 05:35:52;;;;;;;5.00;1.60;;;;;;;;;;4994136;28;20109;-79
2023/04/19 05:38:18;;;;;;;3.95;1.40;;;;;;;;;;4992805;28;20039;-80
2023/04/19 05:40:43;;;;;;;3.47;1.55;;;;;;;;;;4999623;28;20041;-79
2023/04/19 05:43:09;;;;;;;4.93;1.30;;;;;;;;;;4996840;28;20825;-79
2023/04/19 05:45:35;;;;;;;4.28;1.50;;;;;;;;;;4998082;28;20038;-80
2023/04/19 05:48:00;;;;;;;2.58;1.05;;;;;;;;;;4991229;28;20438;-80
2023/04/19 05:50:25;;;;;;;5.15;1.30;;;;;;;;;;4999443;28;20038;-77
2023/04/19 05:52:51;;;;;;;3.95;1.35;;;;;;;;;;4994995;28;20045;-77
2023/04/19 05:55:17;;;;;;;4.25;1.40;;;;;;;;;;4993401;28;20042;-78
2023/04/19 05:57:42;;;;;;;3.15;1.33;;;;;;;;;;4992546;28;20145;-78
2023/04/19 06:00:08;;;;;;;3.10;1.23;;;;;;;;;;4993380;28;20109;-78
2023/04/19 06:02:37;;;;;;;5.40;1.30;;;;;;;;;;4991913;28;20042;-78
2023/04/19 06:05:03;;;;;;;2.90;1.13;;;;;;;;;;4996847;28;20117;-78
2023/04/19 06:07:29;;;;;;;3.80;1.40;;;;;;;;;;4974069;28;20782;-77
2023/04/19 06:09:55;;;;;;;4.57;1.17;;;;;;;;;;4991616;28;20422;-78
2023/04/19 06:12:20;;;;;;;4.07;1.33;;;;;;;;;;4991143;28;20034;-78
2023/04/19 06:14:46;;;;;;;2.63;1.08;;;;;;;;;;4981334;28;20034;-77
2023/04/19 06:17:11;;;;;;;5.35;1.55;;;;;;;;;;4977581;28;20494;-77
2023/04/19 06:19:36;;;;;;;3.28;1.25;;;;;;;;;;4988893;28;20403;-77
2023/04/19 06:22:02;;;;;;;4.05;1.50;;;;;;;;;;4991072;28;20869;-77
2023/04/19 06:24:27;;;;;;;3.85;1.27;;;;;;;;;;4977684;28;20053;-77
2023/04/19 06:26:53;;;;;;;4.45;1.23;;;;;;;;;;4992006;28;20038;-78
2023/04/19 06:29:22;;;;;;;4.85;1.20;;;;;;;;;;4991605;28;20096;-77
2023/04/19 06:31:48;;;;;;;5.43;1.35;;;;;;;;;;4994510;28;20041;-77
2023/04/19 06:34:13;;;;;;;6.53;0.93;;;;;;;;;;4989806;28;20489;-77
2023/04/19 06:36:39;;;;;;;4.38;1.25;;;;;;;;;;4988875;28;20034;-77
2023/04/19 06:39:04;;;;;;;3.00;0.90;;;;;;;;;;4990475;28;20034;-76
2023/04/19 06:41:30;;;;;;;4.47;1.50;;;;;;;;;;4993905;28;20037;-76
2023/04/19 06:43:55;;;;;;;3.20;1.17;;;;;;;;;;4992087;28;20038;-76
2023/04/19 06:46:20;;;;;;;9.60;1.65;;;;;;;;;;4989337;28;20065;-78
2023/04/19 06:48:46;;;;;;;8.38;2.03;;;;;;;;;;4990300;28;20084;-78
2023/04/19 06:51:11;;;;;;;3.53;0.90;;;;;;;;;;4989801;28;20034;-77
2023/04/19 06:53:37;;;;;;;3.80;1.10;;;;;;;;;;4999884;28;20169;-79
2023/04/19 06:56:03;;;;;;;3.40;1.33;;;;;;;;;;4990595;28;20509;-79
2023/04/19 06:58:30;;;;;;;4.13;1.10;;;;;;;;;;4993485;28;20042;-79
2023/04/19 07:00:56;;;;;;;4.28;0.90;;;;;;;;;;4992715;28;20180;-79
2023/04/19 07:03:21;;;;;;;3.05;0.90;;;;;;;;;;4990955;28;20556;-79
2023/04/19 07:05:47;;;;;;;4.18;1.30;;;;;;;;;;4992126;28;20037;-79
2023/04/19 07:08:13;;;;;;;3.75;1.00;;;;;;;;;;4991053;28;20049;-79
2023/04/19 07:10:38;;;;;;;3.10;1.13;;;;;;;;;;4992861;28;20462;-80
2023/04/19 07:13:03;;;;;;;2.50;1.05;;;;;;;;;;4991460;28;20042;-80
2023/04/19 07:15:32;;;;;;;4.30;1.25;;;;;;;;;;4988633;28;20035;-80
2023/04/19 07:17:57;;;;;;;3.13;1.20;;;;;;;;;;4989897;28;20489;-81
2023/04/19 07:20:23;;;;;;;4.82;1.25;;;;;;;;;;4978439;28;20035;-80
2023/04/19 07:22:48;;;;;;;2.28;0.90;;;;;;;;;;4992505;28;20030;-79
2023/04/19 07:25:13;;;;;;;2.83;1.25;;;;;;;;;;4973731;28;20058;-79
2023/04/19 07:27:39;;;;;;;3.15;1.10;;;;;;;;;;4988601;28;20042;-80
2023/04/19 07:30:05;;;;;;;2.90;1.20;;;;;;;;;;4973330;28;20611;-79
2023/04/19 07:32:31;;;;;;;3.20;1.00;;;;;;;;;;4972478;28;20038;-80
2023/04/19 07:34:56;;;;;;;3.92;1.38;;;;;;;;;;4979524;28;20398;-78
2023/04/19 07:37:21;;;;;;;3.33;1.10;;;;;;;;;;4962277;28;20052;-78
2023/04/19 07:39:47;;;;;;;2.85;1.10;;;;;;;;;;4990507;28;20475;-78
2023/04/19 07:42:12;;;;;;;3.30;1.10;;;;;;;;;;4972212;28;20066;-79
2023/04/19 07:44:37;;;;;;;3.47;0.93;;;;;;;;;;4973306;28;20399;-78
2023/04/19 07:47:04;;;;;;;3.63;1.00;;;;;;;;;;4972780;28;20047;-77
2023/04/19 07:49:32;;;;;;;2.55;0.98;;;;;;;;;;4980328;28;20459;-79
2023/04/19 07:52:01;;;;;;;2.55;1.00;;;;;;;;;;4974372;28;20040;-80
2023/04/19 07:54:26;;;;;;;7.75;2.10;;;;;;;;;;4973327;28;20045;-80
2023/04/19 07:56:52;;;;;;;3.47;1.20;;;;;;;;;;4972678;28;20027;-82
2023/04/19 07:59:17;;;;;;;4.15;1.05;;;;;;;;;;4978572;28;20034;-79
2023/04/19 08:01:42;;;;;;;2.85;1.17;;;;;;;;;;4975996;28;20371;-80
2023/04/19 08:04:08;;;;;;;2.20;0.82;;;;;;;;;;4982834;28;20050;-80
2023/04/19 08:06:33;;;;;;;2.75;0.98;;;;;;;;;;4993858;28;20045;-81
2023/04/19 08:08:59;;;;;;;3.05;1.02;;;;;;;;;;4978096;28;20569;-79
2023/04/19 08:11:24;;;;;;;3.15;1.10;;;;;;;;;;4974281;28;20053;-79
2023/04/19 08:13:50;;;;;;;3.30;1.02;;;;;;;;;;4978552;28;20104;-79
2023/04/19 08:16:15;;;;;;;4.53;1.30;;;;;;;;;;4973952;28;20031;-79
2023/04/19 08:18:41;;;;;;;4.15;1.15;;;;;;;;;;4978526;28;20046;-80
2023/04/19 08:21:06;;;;;;;3.00;1.10;;;;;;;;;;4976905;28;20026;-79
2023/04/19 08:23:31;;;;;;;3.92;1.45;;;;;;;;;;4979915;28;20042;-79
2023/04/19 08:25:57;;;;;;;5.45;1.00;;;;;;;;;;5011675;28;20081;-80
2023/04/19 08:28:22;;;;;;;3.40;1.27;;;;;;;;;;4997434;28;20045;-80
2023/04/19 08:30:48;;;;;;;2.78;1.10;;;;;;;;;;4982536;28;20807;-79
2023/04/19 08:33:13;;;;;;;3.33;1.25;;;;;;;;;;4999307;28;20441;-78
2023/04/19 08:35:44;;;;;;;2.67;1.00;;;;;;;;;;4986447;28;20626;-78
2023/04/19 08:38:09;;;;;;;1.90;0.90;;;;;;;;;;4996197;28;20501;-78
2023/04/19 08:40:40;;;;;;;3.75;1.50;;;;;;;;;;4978441;28;20125;-78
2023/04/19 08:43:06;;;;;;;3.10;1.23;;;;;;;;;;4989635;28;20056;-78
2023/04/19 08:45:31;;;;;;;6.32;1.40;;;;;;;;;;4993898;28;20034;-78
2023/04/19 08:47:57;;;;;;;4.20;1.30;;;;;;;;;;4996234;28;20030;-78
2023/04/19 08:50:23;;;;;;;4.20;1.70;;;;;;;;;;4988373;28;20481;-79
2023/04/19 08:52:48;;;;;;;4.72;1.25;;;;;;;;;;4997202;28;20033;-77
2023/04/19 08:55:14;;;;;;;3.53;1.30;;;;;;;;;;4998698;28;20057;-78
2023/04/19 08:57:40;;;;;;;3.05;1.30;;;;;;;;;;4995269;28;20523;-78
2023/04/19 09:00:08;;;;;;;2.85;1.38;;;;;;;;;;5013372;28;20066;-77
2023/04/19 09:02:46;;;;;;;;;;;;;;;;;;4997611;28;20542;-78
2023/04/19 09:05:13;;;;;;;4.80;1.35;;;;;;;;;;4992518;28;19929;-78
2023/04/19 09:07:38;;;;;;;3.17;1.75;;;;;;;;;;5012372;28;20090;-79
2023/04/19 09:10:06;;;;;;;4.78;1.40;;;;;;;;;;5013720;28;20510;-81
2023/04/19 09:12:33;;;;;;;5.80;1.35;;;;;;;;;;5013199;28;20124;-79
2023/04/19 09:14:59;;;;;;;3.55;1.20;;;;;;;;;;4999722;28;20034;-80
2023/04/19 09:17:25;;;;;;;3.80;1.30;;;;;;;;;;5003854;28;20494;-79
2023/04/19 09:19:50;;;;;;;3.13;1.20;;;;;;;;;;5013677;28;20029;-78
2023/04/19 09:22:16;;;;;;;4.22;1.42;;;;;;;;;;5012429;28;20037;-79
2023/04/19 09:24:41;;;;;;;4.43;1.33;;;;;;;;;;4994960;28;20061;-79
2023/04/19 09:27:09;;;;;;;3.83;1.45;;;;;;;;;;4987885;28;20069;-78
2023/04/19 09:29:34;;;;;;;4.47;1.48;;;;;;;;;;4999147;28;20464;-77
2023/04/19 09:32:00;;;;;;;3.97;1.42;;;;;;;;;;4995059;28;20038;-80
2023/04/19 09:34:27;;;;;;;3.42;1.40;;;;;;;;;;4994483;28;20588;-80
2023/04/19 09:36:53;;;;;;;6.90;1.60;;;;;;;;;;5012483;28;20160;-81
2023/04/19 09:39:31;;;;;;;4.97;1.40;;;;;;;;;;4993606;28;20041;-79
2023/04/19 09:41:57;;;;;;;3.47;1.40;;;;;;;;;;4997856;28;20104;-78
2023/04/19 09:44:23;;;;;;;4.60;1.42;;;;;;;;;;4999996;28;20787;-79
2023/04/19 09:46:51;;;;;;;3.47;1.60;;;;;;;;;;4993998;28;20087;-78
2023/04/19 09:49:23;;;;;;;3.80;1.30;;;;;;;;;;4995224;28;20129;-78
2023/04/19 09:51:54;;;;;;;3.53;1.40;;;;;;;;;;5012148;28;20949;-78
2023/04/19 09:54:21;;;;;;;4.78;1.60;;;;;;;;;;4981475;28;20092;-79
2023/04/19 09:56:48;;;;;;;5.07;1.42;;;;;;;;;;5011292;28;20045;-78
2023/04/19 09:59:13;;;;;;;2.95;1.30;;;;;;;;;;5012302;28;20029;-78
2023/04/19 10:01:45;;;;;;;3.97;1.23;;;;;;;;;;5002770;28;20486;-80
2023/04/19 10:04:12;;;;;;;4.03;1.45;;;;;;;;;;4985893;28;20061;-77
2023/04/19 10:06:39;;;;;;;4.18;1.40;;;;;;;;;;5010356;28;20084;-78
2023/04/19 10:09:05;;;;;;;3.58;1.50;;;;;;;;;;5000925;28;20034;-79
2023/04/19 10:11:37;;;;;;;4.15;1.50;;;;;;;;;;4965429;28;20038;-79
2023/04/19 10:14:08;;;;;;;4.90;1.40;;;;;;;;;;5006197;28;20045;-80
2023/04/19 10:16:35;;;;;;;5.13;1.52;;;;;;;;;;5010169;28;20179;-79
2023/04/19 10:19:05;;;;;;;5.97;1.45;;;;;;;;;;4993701;28;20029;-79
2023/04/19 10:21:32;;;;;;;5.93;1.25;;;;;;;;;;5002531;28;20121;-80
2023/04/19 10:23:57;;;;;;;4.63;1.45;;;;;;;;;;4997152;28;20044;-80
2023/04/19 10:26:23;;;;;;;5.38;1.83;;;;;;;;;;5003217;28;20490;-78
2023/04/19 10:28:49;;;;;;;4.85;1.60;;;;;;;;;;4995883;28;20058;-79
2023/04/19 10:31:15;;;;;;;5.30;1.77;;;;;;;;;;5000027;28;20511;-79
2023/04/19 10:33:40;;;;;;;3.58;1.40;;;;;;;;;;4994471;28;20041;-79
2023/04/19 10:36:13;;;;;;;2.97;1.20;;;;;;;;;;4996939;28;20359;-80
2023/04/19 10:38:41;;;;;;;5.68;1.52;;;;;;;;;;4997590;28;20389;-78
2023/04/19 10:41:10;;;;;;;4.65;1.60;;;;;;;;;;4994194;28;20030;-79
2023/04/19 10:43:37;;;;;;;4.22;1.35;;;;;;;;;;4998931;28;20065;-79
2023/04/19 10:46:06;;;;;;;5.82;1.40;;;;;;;;;;5009953;28;20943;-79
2023/04/19 10:48:33;;;;;;;3.88;1.60;;;;;;;;;;4987595;28;20037;-79
2023/04/19 10:51:00;;;;;;;;;;;;;;;;;;4991646;28;20061;-80
2023/04/19 10:53:44;;;;;;;4.90;1.73;;;;;;;;;;4996419;28;19920;-80
2023/04/19 10:56:10;;;;;;;5.90;1.60;;;;;;;;;;5003414;28;20172;-79
2023/04/19 10:59:10;;;;;;;4.70;1.48;;;;;;;;;;4992461;28;20121;-81
2023/04/19 11:01:42;;;;;;;4.93;1.50;;;;;;;;;;5011483;28;20060;-78
2023/04/19 11:04:09;;;;;;;5.07;1.70;;;;;;;;;;5010806;28;20061;-79
2023/04/19 11:06:55;;;;;;;4.43;1.93;;;;;;;;;;5011881;28;20650;-78
2023/04/19 11:09:27;;;;;;;6.72;1.98;;;;;;;;;;5011439;28;20287;-80
2023/04/19 11:11:53;;;;;;;6.38;2.83;;;;;;;;;;5010661;28;20507;-82
2023/04/19 11:14:22;;;;;;;3.78;1.40;;;;;;;;;;4994999;28;20046;-80
2023/04/19 11:16:47;;;;;;;3.13;1.40;;;;;;;;;;5000804;28;20106;-79
2023/04/19 11:19:16;;;;;;;5.65;1.55;;;;;;;;;;5010534;28;20037;-79
2023/04/19 11:21:41;;;;;;;3.40;1.30;;;;;;;;;;4999404;28;20030;-79
2023/04/19 11:24:08;;;;;;;4.55;1.65;;;;;;;;;;5011899;28;20068;-80
2023/04/19 11:26:33;;;;;;;4.93;1.67;;;;;;;;;;4986663;28;20041;-79
2023/04/19 11:28:59;;;;;;;3.40;1.70;;;;;;;;;;4993329;28;20037;-79
2023/04/19 11:31:24;;;;;;;4.60;1.90;;;;;;;;;;5010374;28;20025;-79
2023/04/19 11:33:50;;;;;;;4.97;1.83;;;;;;;;;;4992610;28;20030;-79
2023/04/19 11:36:15;;;;;;;4.38;1.58;;;;;;;;;;5009759;28;20115;-79
2023/04/19 11:38:46;;;;;;;4.32;1.67;;;;;;;;;;4996395;28;20041;-79
2023/04/19 11:41:11;;;;;;;6.38;2.05;;;;;;;;;;5010921;28;20041;-78
2023/04/19 11:43:37;;;;;;;3.45;1.50;;;;;;;;;;4997196;28;20042;-78
2023/04/19 11:46:06;;;;;;;3.72;1.67;;;;;;;;;;4994299;28;20041;-78
2023/04/19 11:48:32;;;;;;;3.88;1.70;;;;;;;;;;5012461;28;20522;-79
2023/04/19 11:50:59;;;;;;;3.65;1.60;;;;;;;;;;4978305;28;20045;-79
2023/04/19 11:53:26;;;;;;;4.18;1.80;;;;;;;;;;5009813;28;20097;-79
2023/04/19 11:55:53;;;;;;;4.05;1.65;;;;;;;;;;4986391;28;20446;-79
2023/04/19 11:58:28;;;;;;;5.95;1.75;;;;;;;;;;5009598;28;20502;-79
2023/04/19 12:00:54;;;;;;;3.50;1.50;;;;;;;;;;4992293;28;20453;-79
2023/04/19 12:03:23;;;;;;;4.05;1.60;;;;;;;;;;5000651;28;20048;-79
2023/04/19 12:05:52;;;;;;;4.30;1.63;;;;;;;;;;4995762;28;20041;-80
2023/04/19 12:08:29;;;;;;;5.03;1.60;;;;;;;;;;5009141;28;20037;-80
2023/04/19 12:10:56;;;;;;;4.60;2.03;;;;;;;;;;5010612;28;20050;-80
2023/04/19 12:13:23;;;;;;;4.20;1.87;;;;;;;;;;5011134;28;20048;-80
2023/04/19 12:15:49;;;;;;;4.63;1.97;;;;;;;;;;4986248;28;20124;-79
2023/04/19 12:18:14;;;;;;;4.18;1.55;;;;;;;;;;5010057;28;20034;-79
2023/04/19 12:20:49;;;;;;;3.38;1.35;;;;;;;;;;5009147;28;20034;-79
2023/04/19 12:23:16;;;;;;;3.95;1.58;;;;;;;;;;4992987;28;20038;-80
2023/04/19 12:25:44;;;;;;;3.45;1.58;;;;;;;;;;5000993;28;20069;-79
2023/04/19 12:28:10;;;;;;;4.32;1.77;;;;;;;;;;5009734;28;20030;-79
2023/04/19 12:30:35;;;;;;;7.20;1.63;;;;;;;;;;5009035;28;20034;-78
2023/04/19 12:33:01;;;;;;;3.22;1.42;;;;;;;;;;4994191;28;20033;-78
2023/04/19 12:35:27;;;;;;;6.50;1.63;;;;;;;;;;4978034;28;20141;-79
2023/04/19 12:37:54;;;;;;;3.92;1.70;;;;;;;;;;4980228;28;20042;-81
2023/04/19 12:40:20;;;;;;;3.83;1.80;;;;;;;;;;4994360;28;20494;-80
2023/04/19 12:42:46;;;;;;;6.03;1.88;;;;;;;;;;4995293;28;20037;-79
2023/04/19 12:45:12;;;;;;;6.90;2.20;;;;;;;;;;5012187;28;20137;-78
2023/04/19 12:47:38;;;;;;;4.88;1.80;;;;;;;;;;5002392;28;20049;-79
2023/04/19 12:50:04;;;;;;;3.78;1.48;;;;;;;;;;4996471;28;20409;-78
2023/04/19 12:52:52;;;;;;;3.10;1.45;;;;;;;;;;4995127;28;20038;-78
2023/04/19 12:55:18;;;;;;;5.68;1.80;;;;;;;;;;4940009;28;20035;-79
2023/04/19 12:57:43;;;;;;;5.00;1.80;;;;;;;;;;4925963;28;21279;-79
2023/04/19 13:00:09;;;;;;;4.65;1.85;;;;;;;;;;4928806;28;20091;-79
2023/04/19 13:02:35;;;;;;;5.35;2.00;;;;;;;;;;4926510;28;20075;-78
2023/04/19 13:05:01;;;;;;;6.22;1.67;;;;;;;;;;4928565;29;20043;-77
2023/04/19 13:07:27;;;;;;;6.25;2.33;;;;;;;;;;4941099;28;20050;-78
2023/04/19 13:09:53;;;;;;;5.97;1.80;;;;;;;;;;4928208;28;20147;-78
2023/04/19 13:12:18;;;;;;;7.53;2.47;;;;;;;;;;4927198;28;20039;-78
2023/04/19 13:14:46;;;;;;;6.47;1.88;;;;;;;;;;4939681;28;20031;-78
2023/04/19 13:17:12;;;;;;;7.50;2.03;;;;;;;;;;4925279;28;20043;-78
2023/04/19 13:19:38;;;;;;;4.00;1.80;;;;;;;;;;4926590;28;20113;-78
2023/04/19 13:22:03;;;;;;;3.95;1.80;;;;;;;;;;4926319;28;20046;-79
2023/04/19 13:24:28;;;;;;;7.28;1.90;;;;;;;;;;4926461;29;20051;-79
2023/04/19 13:26:54;;;;;;;5.03;2.03;;;;;;;;;;4927187;28;20039;-79
2023/04/19 13:29:19;;;;;;;4.68;1.90;;;;;;;;;;4942082;28;20039;-78
2023/04/19 13:31:45;;;;;;;4.13;1.85;;;;;;;;;;4961825;28;20057;-78
2023/04/19 13:34:11;;;;;;;4.05;1.60;;;;;;;;;;4987012;28;20042;-78
2023/04/19 13:36:36;;;;;;;5.35;2.05;;;;;;;;;;4995890;28;20119;-79
2023/04/19 13:39:02;;;;;;;4.30;1.70;;;;;;;;;;5012061;28;20046;-78
2023/04/19 13:41:28;;;;;;;6.38;1.80;;;;;;;;;;5001006;28;20057;-79
2023/04/19 13:43:53;;;;;;;4.47;1.70;;;;;;;;;;4995212;28;20041;-79
2023/04/19 13:46:19;;;;;;;3.58;1.65;;;;;;;;;;5012365;28;20508;-80
2023/04/19 13:48:44;;;;;;;4.57;1.73;;;;;;;;;;5012006;28;20172;-80
2023/04/19 13:51:10;;;;;;;4.18;1.63;;;;;;;;;;4981721;28;20149;-83
2023/04/19 13:53:35;;;;;;;4.72;1.90;;;;;;;;;;4999513;28;20189;-80
2023/04/19 13:56:00;;;;;;;5.65;1.75;;;;;;;;;;4995868;28;20034;-80
2023/04/19 13:58:26;;;;;;;4.95;1.92;;;;;;;;;;5012824;28;20030;-80
2023/04/19 14:00:52;;;;;;;4.68;1.80;;;;;;;;;;4998661;28;20038;-80
2023/04/19 14:03:17;;;;;;;4.65;1.85;;;;;;;;;;5013083;28;20030;-80
2023/04/19 14:05:43;;;;;;;4.00;1.70;;;;;;;;;;5012595;28;20045;-80
2023/04/19 14:08:08;;;;;;;4.47;2.00;;;;;;;;;;5014114;28;20056;-80
2023/04/19 14:10:35;;;;;;;3.35;1.58;;;;;;;;;;4996826;28;20533;-81
2023/04/19 14:13:00;;;;;;;6.18;1.98;;;;;;;;;;5012588;28;20092;-80
2023/04/19 14:15:26;;;;;;;3.90;1.60;;;;;;;;;;5011270;28;20061;-79
2023/04/19 14:17:51;;;;;;;4.63;1.80;;;;;;;;;;5011970;28;20082;-79
2023/04/19 14:20:17;;;;;;;4.03;2.10;;;;;;;;;;4994564;28;20111;-78
2023/04/19 14:22:42;;;;;;;4.50;1.80;;;;;;;;;;4994752;28;20038;-79
2023/04/19 14:25:08;;;;;;;5.00;1.90;;;;;;;;;;4973690;28;20050;-80
2023/04/19 14:27:34;;;;;;;4.70;1.70;;;;;;;;;;4990916;28;20034;-79
2023/04/19 14:30:00;;;;;;;3.28;1.60;;;;;;;;;;4990344;28;20120;-78
2023/04/19 14:32:25;;;;;;;4.57;1.95;;;;;;;;;;4977248;28;20041;-76
2023/04/19 14:34:51;;;;;;;4.18;1.67;;;;;;;;;;4991819;28;20556;-76
2023/04/19 14:37:17;;;;;;;4.45;1.70;;;;;;;;;;4990287;28;20038;-77